Ware, Massachusetts
Current Conditions -  °F | °C
As of 2:01 AM on Thursday 23 Oct 2014 (Local Time) from KCEF Reporting Station
Heavy Rain Heavy Rain  
Wind Chill: 42°   Ceiling: 3900
Heat Index: 48°   Visibility: 6mi
Dew Point: 46°   Wind: 17mph
Humidity: 93%   Direction: 30°NNE
Pressure: 29.81"   Gusts: NA
Location:  42.26°N, 72.24°W
Report Text: KCEF 230601Z AUTO 03015KT 6SM +RA BR FEW013 SCT019 OVC039 09/08 A2981 RMK AO2
Loading
Personal Weather Stations






























Interactive Weather Map
Tropical Storm Tracking
New forecast layout! Learn more

10-Day Weather Forecast

Advertisements
Track Severe Weather on mobile